Date,TemperatureHighF,TemperatureAvgF,TemperatureLowF,DewpointHighF,DewpointAvgF,DewpointLowF,HumidityHigh,HumidityAvg,HumidityLow,PressureMaxIn,PressureMinIn,WindSpeedMaxMPH,WindSpeedAvgMPH,GustSpeedMaxMPH,PrecipitationSumIn
2014-1-1,-4.5,-11.2,-17.0,-13.9,-18.5,-22.7,75,69,61,30.47,30.37,0,-999,0,0.00
2014-1-2,1.2,-14.0,-26.7,-12.8,-21.6,-32.6,78,68,49,30.46,30.22,0,-999,0,0.00
2014-1-3,21.9,6.4,-13.5,19.2,0.8,-19.5,89,77,67,30.22,29.34,0,-999,0,0.03
2014-1-4,21.6,5.0,-13.5,18.9,-1.7,-19.5,89,73,56,30.22,29.37,0,-999,0,0.01
2014-1-5,-11.0,-18.8,-25.2,-19.5,-25.6,-32.3,76,70,61,30.32,30.21,0,-999,0,0.00
2014-1-6,-15.2,-22.5,-27.6,-24.3,-30.0,-34.2,73,67,60,30.24,30.04,0,-999,0,0.00
2014-1-7,-2.9,-13.4,-22.7,-11.4,-19.9,-28.7,78,72,65,30.21,30.01,0,-999,0,0.00
2014-1-8,1.4,-12.7,-25.4,-10.3,-19.5,-31.5,79,71,55,30.38,30.21,0,-999,0,0.00
2014-1-9,17.4,7.5,-13.4,11.1,1.6,-18.6,87,76,69,30.30,29.77,0,-999,0,0.00
2014-1-10,25.5,21.1,14.7,23.5,18.7,11.1,92,90,85,29.77,29.47,0,-999,0,0.00
2014-1-11,25.5,21.8,16.3,23.5,19.0,13.5,92,89,83,29.62,29.46,0,-999,0,0.00
2014-1-12,36.0,27.7,18.0,29.8,23.8,15.3,90,85,78,29.55,29.30,0,-999,0,0.00
2014-1-13,28.4,21.1,14.4,24.1,15.2,8.4,88,78,69,29.63,29.50,0,-999,0,0.00
2014-1-14,17.4,10.2,-0.9,14.0,4.9,-5.4,90,79,66,30.14,29.57,0,-999,0,0.16
2014-1-15,18.9,5.6,-6.7,16.0,1.3,-11.4,96,82,74,30.13,29.31,0,-999,0,0.02
2014-1-16,30.9,11.2,-0.6,26.8,4.7,-6.3,91,74,64,29.95,29.29,0,-999,0,0.00
2014-1-17,11.5,0.5,-10.5,0.7,-6.6,-15.5,81,72,56,30.04,29.68,0,-999,0,0.01
2014-1-18,21.0,12.4,4.8,16.0,7.5,0.3,90,81,67,29.90,29.57,0,-999,0,0.18
2014-1-19,26.2,23.2,17.6,23.2,19.4,14.7,91,85,79,29.71,29.47,0,-999,0,0.00
2014-1-20,19.6,1.5,-14.6,15.8,-6.7,-22.4,86,68,53,30.43,29.71,0,-999,0,0.01
2014-1-21,-4.2,-12.5,-26.1,-6.9,-18.5,-32.4,90,74,67,30.42,29.94,0,-999,0,0.02
2014-1-22,0.9,-5.7,-17.3,-3.6,-12.9,-23.4,90,70,60,30.49,29.91,0,-999,0,0.00
2014-1-23,0.0,-13.6,-27.4,-6.3,-20.2,-33.3,76,71,62,30.63,29.91,0,-999,0,0.00
2014-1-24,27.1,18.7,0.1,22.3,12.2,-7.6,87,76,43,29.91,29.46,0,-999,0,0.01
2014-1-25,7.3,0.0,-5.4,-5.1,-11.0,-14.4,79,59,43,29.88,29.49,0,-999,0,0.03
2014-1-26,6.4,-1.7,-15.7,1.0,-8.4,-23.6,90,73,63,30.06,29.34,0,-999,0,0.03
2014-1-27,-8.5,-17.1,-24.5,-19.5,-25.1,-30.6,74,66,55,30.32,30.06,0,-999,0,0.00
2014-1-28,-3.6,-13.9,-26.9,-13.4,-21.4,-33.2,75,68,56,30.27,29.96,0,-999,0,0.00
2014-1-29,21.2,5.5,-12.3,11.5,-2.9,-17.7,78,68,51,29.95,29.51,0,-999,0,0.00
2014-1-30,14.2,3.0,-15.3,7.2,-5.7,-21.3,75,66,53,29.97,29.56,0,-999,0,0.00
2014-1-31,7.5,-6.3,-18.0,-3.3,-13.3,-23.8,81,72,57,30.02,29.89,0,-999,0,0.00
2014-2-1,13.3,4.3,-10.5,6.3,-2.2,-15.7,82,74,58,30.17,29.85,0,-999,0,0.02
2014-2-2,13.6,-2.5,-18.8,1.8,-9.4,-24.7,88,72,57,30.18,30.09,0,-999,0,0.00
2014-2-3,14.7,1.9,-11.4,1.6,-5.7,-16.6,90,71,53,30.31,30.10,0,-999,0,0.00
2014-2-4,3.9,-3.1,-9.9,-2.9,-11.1,-16.6,81,68,54,30.49,30.30,0,-999,0,0.00
2014-2-5,2.5,-4.5,-8.9,-7.4,-12.1,-16.6,75,69,60,30.50,30.39,0,-999,0,0.00
2014-2-6,3.2,-6.0,-14.8,-4.0,-12.2,-20.4,90,74,61,30.39,30.05,0,-999,0,0.00
2014-2-7,9.5,-0.9,-8.1,-6.3,-10.5,-14.6,78,64,46,30.07,29.99,0,-999,0,0.00
2014-2-8,14.4,-3.1,-21.5,0.1,-11.7,-27.6,81,67,49,30.18,30.05,0,-999,0,0.00
2014-2-9,5.0,-5.1,-14.1,-7.2,-13.3,-20.2,78,67,53,30.35,30.18,0,-999,0,0.00
2014-2-10,6.3,-8.5,-22.0,-6.2,-16.4,-27.9,77,68,54,30.41,30.34,0,-999,0,0.00
2014-2-11,10.2,-2.4,-19.8,6.1,-8.7,-25.8,90,74,63,30.37,29.94,0,-999,0,0.00
2014-2-12,15.6,9.0,-1.5,9.9,0.3,-7.8,93,68,49,30.11,29.68,0,-999,0,0.00
2014-2-13,20.7,14.5,3.2,16.0,9.1,-2.7,96,79,64,29.76,29.38,0,-999,0,0.10
2014-2-14,15.3,3.3,-6.9,2.3,-4.4,-11.9,81,70,54,29.98,29.75,0,-999,0,0.00
2014-2-15,17.8,6.2,-4.2,9.9,-0.0,-9.0,81,75,68,30.09,29.76,0,-999,0,0.00
2014-2-16,17.4,9.3,-3.8,8.2,1.9,-8.5,84,72,56,30.19,29.90,0,-999,0,0.00
2014-2-17,25.3,19.3,16.3,19.4,14.5,8.1,89,81,69,29.91,29.64,0,-999,0,0.32
2014-2-18,42.6,28.1,18.7,28.6,20.4,14.7,88,74,55,29.73,29.51,0,-999,0,0.00
2014-2-19,41.0,29.5,16.5,27.3,21.1,13.5,89,72,50,29.76,29.59,0,-999,0,0.00
2014-2-20,35.1,27.4,8.2,28.9,22.8,4.5,96,83,73,29.61,29.41,0,-999,0,0.38
2014-2-21,11.1,5.7,1.9,4.5,0.2,-3.8,88,78,69,29.70,29.36,0,-999,0,0.04
2014-2-22,10.9,3.1,-2.9,0.7,-4.0,-8.0,83,72,60,30.05,29.70,0,-999,0,0.00
2014-2-23,14.9,4.5,-3.5,3.0,-3.2,-8.7,84,71,56,30.21,30.05,0,-999,0,0.00
2014-2-24,10.9,-0.2,-9.9,-2.0,-8.2,-15.2,78,69,52,30.28,30.20,0,-999,0,0.00
2014-2-25,5.4,-7.1,-15.3,-6.2,-15.6,-21.1,89,66,47,30.28,30.20,0,-999,0,0.00
2014-2-26,14.2,-2.4,-14.4,4.1,-12.4,-24.7,75,62,46,30.23,29.57,0,-999,0,0.00
2014-2-27,-1.5,-13.4,-24.3,-18.9,-25.7,-32.1,67,54,39,30.14,29.98,0,-999,0,0.00
2014-2-28,10.2,-1.4,-13.4,1.4,-11.8,-24.3,73,60,54,30.18,29.81,0,-999,0,0.00
2014-3-1,-3.1,-11.0,-19.1,-13.5,-22.3,-30.1,73,57,41,30.48,30.18,0,-999,0,0.00
2014-3-2,3.9,-10.0,-21.8,-10.8,-20.5,-29.4,70,59,48,30.48,30.41,0,-999,0,0.00
2014-3-3,3.4,-6.6,-22.7,-2.2,-13.0,-29.0,79,73,56,30.46,30.19,0,-999,0,0.08
2014-3-4,16.2,6.4,-2.7,3.6,-1.4,-7.6,88,70,54,30.30,30.14,0,-999,0,0.00
2014-3-5,25.2,10.2,-4.2,9.0,1.1,-8.9,84,67,47,30.42,30.21,0,-999,0,0.00
2014-3-6,25.9,19.3,12.7,20.3,14.3,7.0,90,81,72,30.21,29.73,0,-999,0,0.00
2014-3-7,25.2,21.8,11.1,22.8,16.5,5.4,91,80,67,30.23,29.74,0,-999,0,0.01
2014-3-8,26.2,14.5,0.0,11.5,5.6,-4.0,90,69,46,30.31,30.04,0,-999,0,0.00
2014-3-9,46.2,31.0,14.5,30.9,22.5,9.7,83,72,53,30.04,29.61,0,-999,0,0.00
2014-3-10,51.6,38.8,28.2,32.2,29.0,25.3,91,70,43,29.73,29.55,0,-999,0,0.00
2014-3-11,37.4,32.0,19.4,28.9,20.5,7.3,77,63,46,30.09,29.73,0,-999,0,0.00
2014-3-12,26.8,16.7,6.1,11.3,4.5,-0.9,74,59,38,30.15,29.92,0,-999,0,0.00
2014-3-13,51.3,35.0,19.2,34.2,25.6,11.3,89,70,43,29.93,29.49,0,-999,0,0.00
2014-3-14,39.0,30.0,16.3,31.8,21.4,9.3,83,71,53,29.98,29.50,0,-999,0,0.00
2014-3-15,26.1,16.3,8.6,9.3,4.5,-3.5,82,61,39,30.44,29.98,0,-999,0,0.00
2014-3-16,20.5,11.9,-1.8,10.9,0.5,-8.9,74,60,48,30.47,29.90,0,-999,0,0.00
2014-3-17,34.2,25.3,18.9,24.4,18.9,10.9,84,77,65,29.90,29.56,0,-999,0,0.00
2014-3-18,32.9,27.4,23.2,23.7,21.3,18.9,87,78,66,29.89,29.70,0,-999,0,0.01
2014-3-19,33.6,28.8,23.5,23.4,20.7,17.2,79,72,58,29.96,29.86,0,-999,0,0.00
2014-3-20,40.1,28.2,16.9,27.5,21.8,13.3,90,77,57,29.99,29.85,0,-999,0,0.00
2014-3-21,32.5,25.6,7.3,29.1,20.9,0.7,91,82,73,30.22,29.69,0,-999,0,0.20
2014-3-22,15.3,6.8,-0.8,5.0,-1.6,-7.1,77,68,58,30.47,30.22,0,-999,0,0.00
2014-3-23,20.8,7.4,-6.5,6.8,-1.4,-11.4,84,68,48,30.47,30.31,0,-999,0,0.00
2014-3-24,26.1,13.7,1.2,13.1,4.1,-4.0,90,66,40,30.31,30.07,0,-999,0,0.00
2014-3-25,20.7,10.1,0.0,6.4,-0.7,-6.9,76,62,49,30.24,30.09,0,-999,0,0.00
2014-3-26,35.6,19.8,3.2,19.9,9.3,-2.9,87,65,45,30.09,29.57,0,-999,0,0.00
2014-3-27,30.6,28.3,25.0,26.2,22.9,16.7,91,80,64,29.84,29.52,0,-999,0,0.29
2014-3-28,30.4,22.6,12.0,16.7,7.8,2.5,78,54,36,30.25,29.84,0,-999,0,0.00
2014-3-29,38.1,27.9,16.2,23.9,12.0,5.7,68,52,36,30.27,29.95,0,-999,0,0.00
2014-3-30,51.3,40.2,31.8,32.2,29.0,23.9,79,65,47,29.95,29.81,0,-999,0,0.00
2014-3-31,38.7,35.1,25.0,32.5,30.1,20.8,91,82,70,29.84,29.49,0,-999,0,0.21
2014-4-1,32.4,21.3,14.0,21.6,14.8,10.2,87,76,61,30.12,29.53,0,-999,0,0.30
2014-4-2,39.7,25.3,7.5,21.6,13.5,3.4,85,63,40,30.20,30.12,0,-999,0,0.00
2014-4-3,34.0,30.2,26.8,28.2,23.4,18.9,89,76,57,30.15,29.92,0,-999,0,0.18
2014-4-4,42.6,32.7,26.4,25.0,22.8,20.1,86,68,43,30.03,29.86,0,-999,0,0.00
2014-4-5,46.9,34.0,20.1,32.9,26.4,16.9,90,75,53,30.05,29.91,0,-999,0,0.00
2014-4-6,55.9,42.6,30.6,36.1,32.4,28.2,92,69,44,29.91,29.81,0,-999,0,0.00
2014-4-7,54.9,43.3,35.4,41.7,32.0,22.3,93,68,35,29.88,29.80,0,-999,0,0.09
2014-4-8,48.9,38.2,29.8,29.1,25.5,22.5,85,62,38,30.03,29.88,0,-999,0,0.00
2014-4-9,64.8,49.0,30.9,45.7,33.5,23.2,75,56,41,29.94,29.44,0,-999,0,0.00
2014-4-10,57.0,46.0,36.3,33.1,26.0,20.5,65,47,29,29.92,29.61,0,-999,0,0.00
2014-4-11,58.5,47.2,33.6,36.0,30.1,20.8,82,53,36,29.98,29.91,0,-999,0,0.00
2014-4-12,45.7,40.5,35.2,38.8,35.0,29.3,92,81,57,29.98,29.80,0,-999,0,0.38
2014-4-13,38.1,33.5,27.1,33.6,25.6,16.0,92,73,58,30.08,29.81,0,-999,0,0.00
2014-4-14,34.2,25.3,18.0,16.9,10.2,3.9,74,54,30,30.14,30.06,0,-999,0,0.01
2014-4-15,33.4,22.4,9.7,9.7,3.8,-0.9,76,47,26,30.16,30.03,0,-999,0,0.00
2014-4-16,28.0,26.7,25.2,24.6,18.8,5.5,88,74,40,30.17,30.04,0,-999,0,0.12
2014-4-17,45.9,33.1,22.8,25.7,20.0,14.4,83,61,36,30.29,30.17,0,-999,0,0.00
2014-4-18,47.7,37.0,27.3,25.3,22.9,20.1,77,58,38,30.35,30.14,0,-999,0,0.00
2014-4-19,66.9,50.1,39.2,45.9,33.3,22.3,80,55,26,30.14,29.94,0,-999,0,0.10
2014-4-20,72.3,53.0,31.6,38.5,31.6,26.1,87,49,22,30.08,29.94,0,-999,0,0.00
2014-4-21,57.6,49.5,37.6,38.8,32.0,26.6,69,51,38,30.10,29.91,0,-999,0,0.00
2014-4-22,57.0,42.7,26.4,32.9,26.2,21.7,87,55,27,30.17,30.05,0,-999,0,0.00
2014-4-23,50.9,38.8,31.8,34.9,28.2,21.4,92,68,40,30.09,29.94,0,-999,0,0.62
2014-4-24,38.7,36.0,32.7,36.3,33.5,30.4,92,90,88,29.94,29.70,0,-999,0,0.35
2014-4-25,52.2,39.7,32.9,37.9,33.0,28.6,94,79,48,29.98,29.70,0,-999,0,0.07
2014-4-26,50.7,38.4,27.9,32.7,29.2,25.0,91,71,47,30.08,29.96,0,-999,0,0.00
2014-4-27,36.3,34.5,31.8,32.0,29.8,26.1,87,83,67,30.00,29.78,0,-999,0,0.43
2014-4-28,37.9,35.7,34.5,33.1,32.0,30.0,90,86,74,29.87,29.72,0,-999,0,0.78
2014-4-29,46.9,41.2,35.8,36.1,29.6,23.7,89,64,47,29.91,29.83,0,-999,0,0.09
2014-4-30,42.6,37.9,34.5,38.1,34.7,31.8,91,88,78,29.88,29.83,0,-999,0,0.17
2014-5-1,46.8,40.3,35.4,37.6,35.0,32.9,91,82,68,29.86,29.80,0,-999,0,0.10
2014-5-2,57.6,46.1,35.1,41.0,35.8,31.3,89,69,44,29.82,29.62,0,-999,0,0.00
2014-5-3,55.4,43.5,35.1,35.1,30.7,25.3,84,63,37,30.02,29.74,0,-999,0,0.00
2014-5-4,55.8,42.4,26.6,31.6,25.7,21.9,87,55,27,30.15,30.01,0,-999,0,0.00
2014-5-5,60.6,48.1,39.9,38.1,35.0,29.8,88,64,32,30.08,29.96,0,-999,0,0.02
2014-5-6,61.7,48.3,37.9,39.2,36.2,32.7,83,65,40,30.03,29.86,0,-999,0,0.00
2014-5-7,61.0,49.0,40.6,48.2,41.1,35.8,91,76,49,29.92,29.69,0,-999,0,0.97
2014-5-8,50.2,48.2,46.0,48.2,46.1,44.1,93,92,90,29.83,29.56,0,-999,0,0.92
2014-5-9,53.1,45.5,41.2,46.2,40.6,33.4,94,84,55,29.79,29.50,0,-999,0,0.14
2014-5-10,69.3,52.2,33.4,48.6,37.0,26.4,90,61,23,29.88,29.78,0,-999,0,0.14
2014-5-11,69.3,57.7,46.6,50.9,47.2,44.1,93,71,42,29.94,29.83,0,-999,0,0.15
2014-5-12,50.5,46.2,43.3,47.5,43.9,41.5,94,92,89,29.93,29.79,0,-999,0,0.71
2014-5-13,51.3,43.2,38.7,41.7,36.6,31.8,93,78,55,30.15,29.81,0,-999,0,0.01
2014-5-14,50.2,41.5,33.3,33.1,29.6,25.9,88,64,43,30.27,30.15,0,-999,0,0.00
2014-5-15,47.8,40.7,36.9,32.2,28.3,25.7,75,62,45,30.27,30.14,0,-999,0,0.00
2014-5-16,55.8,44.1,32.5,31.8,26.4,23.2,76,52,32,30.14,30.03,0,-999,0,0.00
2014-5-17,67.5,51.2,34.5,47.5,32.7,26.4,80,53,25,30.03,29.94,0,-999,0,0.03
2014-5-18,70.9,58.3,41.2,41.9,37.9,34.0,82,50,28,30.03,29.94,0,-999,0,0.00
2014-5-19,60.6,53.2,49.5,48.9,44.6,36.3,93,75,41,29.96,29.77,0,-999,0,0.63
2014-5-20,76.1,62.5,50.7,55.8,49.6,44.1,94,67,37,29.91,29.78,0,-999,0,0.00
2014-5-21,63.5,54.2,46.2,45.0,42.9,39.6,79,66,47,30.16,29.90,0,-999,0,0.00
2014-5-22,70.5,54.5,36.9,45.9,39.6,34.5,93,61,30,30.24,30.16,0,-999,0,0.00
2014-5-23,78.1,62.3,42.4,46.8,42.1,35.8,87,52,28,30.25,30.11,0,-999,0,0.00
2014-5-24,83.5,70.7,57.9,53.2,48.0,44.4,62,46,30,30.13,30.01,0,-999,0,0.00
2014-5-25,81.1,69.3,55.8,59.4,52.7,45.9,78,57,31,30.04,29.91,0,-999,0,0.00
2014-5-26,84.6,70.3,59.4,63.3,60.2,55.9,90,72,42,29.95,29.89,0,-999,0,0.00
2014-5-27,83.3,70.2,61.5,61.3,56.7,51.6,86,64,41,30.04,29.91,0,-999,0,0.00
2014-5-28,84.0,67.7,50.9,52.7,44.7,36.3,80,47,23,30.13,30.04,0,-999,0,0.00
2014-5-29,86.2,68.8,50.4,55.0,49.2,42.6,85,53,25,30.15,30.06,0,-999,0,0.00
2014-5-30,88.2,73.0,57.7,65.3,59.1,49.1,84,63,45,30.14,30.02,0,-999,0,0.01
2014-5-31,73.6,66.5,63.0,66.6,63.6,60.8,94,90,71,30.11,29.88,0,-999,0,2.69
2014-6-1,74.5,67.6,63.0,66.9,63.8,61.0,94,88,74,29.89,29.73,0,-999,0,0.07
2014-6-2,75.9,65.1,56.1,64.8,59.1,48.7,94,82,55,29.85,29.60,0,-999,0,0.05
2014-6-3,75.9,64.6,52.5,57.0,53.0,48.6,92,68,44,29.93,29.83,0,-999,0,0.00
2014-6-4,81.0,68.6,54.9,59.7,52.3,46.8,92,60,33,29.94,29.86,0,-999,0,0.00
2014-6-5,70.5,61.8,55.9,61.0,56.7,50.9,92,84,67,29.93,29.78,0,-999,0,0.88
2014-6-6,77.9,65.7,57.0,63.9,55.6,46.9,94,72,45,30.04,29.86,0,-999,0,0.00
2014-6-7,69.3,58.8,49.8,52.0,47.5,39.7,91,69,38,30.09,30.00,0,-999,0,0.47
2014-6-8,72.1,59.9,43.9,48.6,43.8,36.9,91,59,31,30.15,30.04,0,-999,0,0.00
2014-6-9,73.9,63.7,54.1,54.7,50.2,45.1,88,64,41,30.06,29.96,0,-999,0,0.00
2014-6-10,77.7,65.4,51.6,57.7,53.2,48.0,91,67,44,29.99,29.86,0,-999,0,0.00
2014-6-11,70.0,62.7,56.1,63.7,57.7,51.1,93,84,61,29.89,29.64,0,-999,0,2.76
2014-6-12,63.9,54.9,47.8,57.6,48.3,39.7,93,80,46,29.97,29.60,0,-999,0,0.23
2014-6-13,74.8,60.8,43.5,53.8,47.1,40.8,96,64,37,30.03,29.89,0,-999,0,0.00
2014-6-14,66.9,60.6,57.2,58.8,54.6,50.2,91,81,65,29.94,29.71,0,-999,0,0.52
2014-6-15,69.1,61.4,55.6,59.7,56.1,53.2,93,84,64,29.76,29.48,0,-999,0,1.27
2014-6-16,74.5,66.1,56.5,65.5,58.4,51.8,90,77,56,29.89,29.71,0,-999,0,0.01
2014-6-17,83.7,71.1,57.0,66.9,61.7,54.7,93,74,51,29.92,29.74,0,-999,0,0.00
2014-6-18,76.8,68.5,60.8,63.0,57.5,51.1,79,68,57,30.03,29.87,0,-999,0,0.00
2014-6-19,74.5,66.2,59.7,68.0,61.9,51.1,93,86,71,30.00,29.85,0,-999,0,0.67
2014-6-20,81.7,68.5,59.5,67.8,62.5,55.6,94,83,47,29.97,29.86,0,-999,0,0.21
2014-6-21,83.5,68.3,56.3,66.4,60.1,53.8,93,77,50,29.95,29.85,0,-999,0,0.00
2014-6-22,79.2,70.7,62.1,68.7,63.9,58.8,92,80,62,29.90,29.82,0,-999,0,0.00
2014-6-23,79.5,69.2,57.4,64.2,60.2,54.9,93,75,51,29.89,29.81,0,-999,0,0.00
2014-6-24,79.0,64.9,53.2,66.7,59.3,49.8,92,83,52,30.05,29.88,0,-999,0,0.78
2014-6-25,65.3,57.4,51.1,58.1,52.1,47.7,91,83,73,30.10,30.04,0,-999,0,0.00
2014-6-26,79.0,65.9,54.9,66.6,57.8,48.4,86,76,62,30.09,29.88,0,-999,0,0.00
2014-6-27,81.7,72.0,62.6,70.7,65.8,57.7,90,81,66,29.91,29.73,0,-999,0,0.12
2014-6-28,80.4,73.3,69.4,74.8,69.6,65.7,93,88,76,29.74,29.61,0,-999,0,0.61
2014-6-29,79.5,71.6,62.8,66.2,59.4,52.3,91,68,42,29.68,29.59,0,-999,0,0.03
2014-6-30,77.5,70.1,62.6,59.5,54.5,50.7,87,59,41,29.60,29.46,0,-999,0,0.01
2014-7-1,65.5,61.1,54.5,61.5,55.5,48.6,91,82,67,29.89,29.46,0,-999,0,0.03
2014-7-2,72.0,61.6,51.6,52.9,48.9,44.2,91,66,40,30.13,29.89,0,-999,0,0.01
2014-7-3,75.7,63.0,49.3,57.2,51.1,46.0,91,68,39,30.21,30.12,0,-999,0,0.00
2014-7-4,73.9,65.1,52.9,60.3,55.4,49.6,92,72,50,30.24,30.03,0,-999,0,0.00
2014-7-5,83.7,75.2,66.2,72.0,66.2,60.3,84,74,65,30.03,29.79,0,-999,0,0.00
2014-7-6,84.4,75.0,65.5,71.4,65.2,58.8,90,73,50,29.84,29.69,0,-999,0,0.12
2014-7-7,81.9,70.8,61.3,65.8,60.4,54.1,89,71,50,29.78,29.66,0,-999,0,0.12
2014-7-8,72.7,64.5,56.8,58.5,55.2,52.2,90,73,53,29.93,29.68,0,-999,0,0.00
2014-7-9,78.1,65.9,56.3,59.0,55.1,51.3,90,70,41,30.02,29.93,0,-999,0,0.00
2014-7-10,81.3,69.4,53.8,66.7,59.6,50.5,92,73,48,30.05,29.92,0,0,0,0.12
2014-7-11,82.6,71.9,64.6,74.3,67.6,62.2,93,87,70,30.01,29.89,0,0,0,2.21
2014-7-12,74.7,68.1,60.6,63.9,60.9,55.9,91,78,61,30.04,29.90,0,0,0,0.04
2014-7-13,72.3,62.7,51.8,57.0,52.3,47.5,92,71,45,29.97,29.88,0,0,0,0.00
2014-7-14,62.8,56.3,49.6,56.8,50.5,46.6,89,81,71,30.11,29.88,0,0,0,0.08
2014-7-15,70.5,61.6,53.8,55.6,52.1,49.6,89,72,52,30.13,30.04,0,0,0,0.00
2014-7-16,74.8,62.2,50.4,59.2,53.7,47.5,92,75,48,30.09,29.99,0,0,0,0.00
2014-7-17,76.8,65.1,53.2,62.1,56.4,50.4,93,75,50,30.03,29.97,0,0,0,0.00
2014-7-18,78.3,69.9,61.2,62.8,59.0,56.1,86,69,51,29.99,29.87,0,0,0,0.00
2014-7-19,79.2,72.0,66.7,67.6,63.4,59.7,90,75,58,29.88,29.83,0,0,0,0.00
2014-7-20,85.3,74.4,63.3,73.8,67.9,61.0,93,81,66,29.86,29.76,0,0,0,0.00
2014-7-21,91.0,80.1,70.3,78.8,73.2,65.1,92,80,65,29.91,29.75,0,0,0,0.11
2014-7-22,79.9,70.4,60.1,65.3,60.9,54.7,92,74,48,30.21,29.73,0,0,0,0.03
2014-7-23,78.3,66.8,55.9,61.0,56.0,52.9,92,71,43,30.29,30.17,0,0,0,0.00
2014-7-24,76.8,67.2,54.1,62.8,58.0,51.4,93,74,50,30.19,29.88,0,0,0,0.00
2014-7-25,79.3,71.5,63.3,70.2,65.3,59.5,91,81,69,29.90,29.76,0,0,0,0.24
2014-7-26,84.4,71.7,58.3,67.5,60.5,54.9,93,70,43,29.85,29.74,0,0,0,0.00
2014-7-27,75.0,66.3,60.4,63.5,58.2,54.9,89,75,58,30.17,29.77,0,0,0,0.01
2014-7-28,75.7,67.4,59.7,60.1,57.1,53.8,87,71,50,30.22,30.15,0,0,0,0.00
2014-7-29,77.9,66.1,55.0,61.7,56.8,52.0,91,74,50,30.16,30.06,0,0,0,0.00
2014-7-30,78.3,67.1,55.9,63.9,57.9,53.1,91,74,51,30.11,30.04,0,0,0,0.00
2014-7-31,82.6,69.0,56.5,66.0,59.5,53.1,90,73,49,30.05,29.99,0,0,0,0.00
2014-8-1,81.3,69.3,57.7,67.8,61.1,55.2,92,77,54,30.09,30.03,0,0,0,0.00
2014-8-2,84.0,70.4,56.8,66.0,60.8,54.3,93,74,44,30.13,30.07,0,0,0,0.00
2014-8-3,80.8,68.0,60.1,69.6,62.8,57.4,93,84,65,30.15,30.08,0,0,0,0.97
2014-8-4,76.5,65.9,54.1,59.7,55.6,51.1,92,71,47,30.15,30.09,0,0,0,0.00
2014-8-5,79.3,66.9,53.6,64.8,57.7,50.7,93,74,49,30.18,30.11,0,0,0,0.00
2014-8-6,82.6,69.7,57.2,66.9,60.8,54.5,93,75,50,30.14,30.07,0,0,0,0.00
2014-8-7,81.3,69.5,58.8,66.4,61.2,55.6,90,76,52,30.13,30.03,0,0,0,0.00
2014-8-8,82.2,70.7,61.5,66.6,62.6,58.8,93,77,53,30.12,30.05,0,0,0,0.00
2014-8-9,78.4,69.6,59.7,66.4,62.3,56.8,92,79,62,30.14,30.07,0,0,0,0.00
2014-8-10,68.2,66.6,63.0,65.8,63.7,60.4,93,90,79,30.09,30.03,0,0,0,1.50
2014-8-11,74.7,66.6,59.5,61.0,57.3,53.2,93,74,49,30.11,30.03,0,0,0,0.04
2014-8-12,78.8,66.0,53.1,61.9,56.4,50.4,92,73,49,30.11,30.00,0,0,0,0.00
2014-8-13,79.0,67.8,58.3,62.4,58.0,54.3,92,72,47,30.13,30.03,0,0,0,0.00
2014-8-14,79.3,67.5,57.4,64.6,58.7,54.0,91,75,52,30.14,29.99,0,0,0,0.00
2014-8-15,83.7,71.5,60.3,69.1,63.5,57.2,92,77,57,30.00,29.86,0,0,0,0.00
2014-8-16,85.5,73.2,64.6,72.5,67.1,62.2,93,82,56,29.97,29.84,0,0,0,0.01
2014-8-17,68.7,60.9,58.1,64.0,57.6,55.0,92,89,78,30.02,29.89,0,0,0,1.42
2014-8-18,76.8,65.0,59.5,69.3,61.9,57.2,94,90,72,29.89,29.68,0,0,0,1.20
2014-8-19,76.8,67.2,60.6,68.4,62.9,58.3,94,87,71,29.83,29.70,0,0,0,0.08
2014-8-20,79.9,68.8,59.5,68.4,63.2,57.2,94,83,63,29.91,29.83,0,0,0,0.00
2014-8-21,72.1,68.1,64.9,67.5,64.8,62.2,93,89,85,29.91,29.75,0,0,0,0.81
2014-8-22,78.1,70.4,66.2,70.2,66.2,64.0,93,87,72,30.06,29.91,0,0,0,0.00
2014-8-23,72.5,67.9,63.7,67.5,64.4,60.6,92,89,83,30.06,29.93,0,0,0,0.00
2014-8-24,84.2,73.3,64.8,74.8,68.5,59.7,94,85,69,29.93,29.77,0,0,0,0.70
2014-8-25,66.2,61.7,56.3,59.7,55.0,49.8,92,79,64,30.08,29.84,0,0,0,0.00
2014-8-26,68.4,58.1,47.3,55.9,50.9,44.4,91,78,57,30.21,30.08,0,0,0,0.06
2014-8-27,70.3,61.7,54.3,61.0,56.6,52.0,93,84,67,30.23,30.13,0,0,0,0.00
2014-8-28,73.6,65.2,57.2,64.6,60.5,54.3,95,85,68,30.14,29.92,0,0,0,0.03
2014-8-29,70.3,66.7,64.6,66.6,64.0,62.1,93,91,88,29.93,29.77,0,0,0,0.14
2014-8-30,67.6,64.7,61.3,63.3,61.6,59.0,93,90,83,29.91,29.82,0,0,0,0.00
2014-8-31,79.3,67.9,62.1,69.6,63.7,58.8,92,87,71,29.90,29.63,0,0,0,0.14
2014-9-1,74.7,64.7,55.0,63.1,57.7,51.6,93,80,50,29.82,29.64,0,0,0,0.09
2014-9-2,75.6,65.1,51.1,60.6,55.0,48.9,94,72,46,29.87,29.80,0,0,0,0.01
2014-9-3,72.9,65.6,57.6,63.3,59.8,54.3,92,82,68,29.84,29.73,0,0,0,0.00
2014-9-4,75.2,67.4,60.1,67.8,62.3,52.3,93,84,73,29.90,29.63,0,0,0,2.14
2014-9-5,66.9,58.2,52.2,52.7,49.9,47.5,88,75,52,30.15,29.90,0,0,0,0.00
2014-9-6,72.9,60.8,48.9,57.0,51.7,45.9,92,73,47,30.19,30.08,0,0,0,0.00
2014-9-7,78.1,65.7,55.9,63.3,55.6,49.3,81,70,56,30.09,29.95,0,0,0,0.00
2014-9-8,77.2,65.3,55.4,63.9,57.6,51.3,88,77,59,29.95,29.78,0,0,0,0.00
2014-9-9,72.3,61.4,52.3,65.3,57.0,48.9,92,86,75,29.92,29.84,0,0,0,0.00
2014-9-10,52.5,47.8,43.3,49.3,43.5,39.9,95,85,70,30.17,29.86,0,0,0,0.10
2014-9-11,53.1,46.5,40.3,45.3,40.6,37.0,90,80,60,30.37,30.16,0,0,0,0.05
2014-9-12,53.6,43.7,35.2,41.4,36.7,32.7,92,78,48,30.40,30.27,0,0,0,0.00
2014-9-13,57.7,47.5,36.1,45.1,39.6,33.4,92,75,52,30.27,29.98,0,0,0,0.00
2014-9-14,56.8,50.4,43.2,47.1,44.1,40.5,90,79,66,30.10,29.96,0,0,0,0.00
2014-9-15,61.2,48.8,39.7,46.0,40.6,36.0,93,76,43,30.18,30.09,0,0,0,0.00
2014-9-16,69.1,54.4,43.2,48.4,43.2,37.9,89,68,41,30.11,29.93,0,0,0,0.00
2014-9-17,73.9,56.4,44.4,55.9,48.7,41.9,93,77,45,30.03,29.87,0,0,0,0.00
2014-9-18,62.8,52.4,42.6,55.4,47.9,38.8,91,85,73,30.06,29.86,0,0,0,0.00
2014-9-19,64.2,61.1,57.2,62.2,57.5,52.3,93,88,77,29.86,29.56,0,0,0,0.00
2014-9-20,67.8,59.5,51.3,61.7,55.2,47.5,94,86,71,29.84,29.56,0,0,0,0.14
2014-9-21,65.7,55.4,47.7,52.2,49.0,44.4,92,80,57,30.17,29.83,0,0,0,0.00
2014-9-22,72.9,56.3,41.7,55.8,48.7,39.2,93,78,48,30.17,30.06,0,0,0,0.00
2014-9-23,74.8,59.9,47.5,57.6,52.1,45.1,93,77,48,30.12,30.05,0,0,0,0.00
2014-9-24,65.1,61.4,58.8,58.3,55.2,51.6,89,80,69,30.09,30.04,0,0,0,0.00
2014-9-25,75.4,64.5,58.8,66.7,60.0,55.6,92,86,72,30.13,30.07,0,0,0,0.00
2014-9-26,79.0,65.2,55.9,63.7,58.8,54.0,94,81,55,30.12,30.04,0,0,0,0.00
2014-9-27,81.7,68.3,59.7,64.6,60.2,56.8,91,77,54,30.05,30.00,0,0,0,0.00
2014-9-28,81.3,65.1,54.9,63.5,58.0,50.9,93,80,52,30.07,29.96,0,0,0,0.01
2014-9-29,54.7,50.1,44.4,50.9,44.9,40.3,90,82,71,30.16,30.06,0,0,0,0.03
2014-9-30,56.8,48.6,41.7,47.5,42.6,38.5,90,80,66,30.08,29.76,0,0,0,0.00
2014-10-1,55.8,53.2,51.3,53.4,49.8,46.4,92,88,79,29.78,29.69,0,0,0,0.00
2014-10-2,57.4,53.4,46.9,53.2,50.5,44.4,93,90,83,29.81,29.68,0,0,0,0.04
2014-10-3,48.4,40.7,35.1,45.7,37.0,32.4,92,87,79,29.75,29.68,0,0,0,0.25
2014-10-4,44.8,38.9,31.1,35.6,32.9,27.7,90,79,63,29.75,29.62,0,0,0,0.01
2014-10-5,49.5,39.4,31.3,34.5,31.1,26.8,93,73,50,29.62,29.45,0,0,0,0.00
2014-10-6,57.0,43.9,33.6,39.7,31.4,24.4,86,63,41,29.51,29.34,0,0,0,0.00
2014-10-7,50.5,41.5,32.5,35.8,31.5,27.9,86,68,48,29.83,29.46,0,0,0,0.00
2014-10-8,49.8,37.6,29.1,30.7,27.5,25.5,88,69,42,30.10,29.83,0,0,0,0.00
2014-10-9,50.7,37.1,27.0,35.8,30.0,23.9,91,77,53,30.22,30.09,0,0,0,0.00
2014-10-10,50.9,38.4,26.4,34.2,29.3,23.7,91,72,44,30.27,30.17,0,0,0,0.00
2014-10-11,57.0,42.5,29.3,34.7,30.8,26.2,91,66,38,30.19,29.89,0,0,0,0.00
2014-10-12,62.1,50.6,41.0,42.4,36.7,32.0,75,60,45,29.90,29.70,0,0,0,0.00
2014-10-13,51.8,48.3,45.0,47.5,45.0,41.2,92,88,72,29.89,29.75,0,0,0,0.38
2014-10-14,61.7,48.7,39.0,44.8,39.7,35.1,93,74,41,30.02,29.87,0,0,0,0.00
2014-10-15,62.8,46.3,32.2,43.7,36.6,29.5,93,72,40,30.04,29.85,0,0,0,0.00
2014-10-16,67.3,53.0,39.9,48.4,41.3,34.2,85,66,44,29.86,29.52,0,0,43,0.00
2014-10-17,53.8,49.5,45.9,43.7,41.6,38.5,81,74,58,30.11,29.58,0,0,0,0.00
2014-10-18,51.3,43.4,38.7,38.5,35.3,32.9,87,73,54,30.22,30.03,0,0,0,0.00
2014-10-19,67.1,51.1,39.6,46.2,40.8,35.8,89,70,42,30.03,29.74,0,0,0,0.00
2014-10-20,56.3,46.5,38.5,42.6,39.2,34.7,90,77,57,30.10,29.88,0,0,0,0.00
2014-10-21,55.9,44.6,35.2,41.0,37.4,32.4,92,77,57,30.16,30.08,0,0,0,0.00
2014-10-22,58.5,50.5,42.6,45.5,40.7,36.5,80,70,57,30.10,29.95,0,0,0,0.01
2014-10-23,67.1,54.7,49.5,50.0,45.1,37.6,92,73,39,29.96,29.88,0,0,0,0.05
2014-10-24,71.8,56.7,44.6,48.2,41.8,34.3,83,59,34,29.90,29.78,0,0,0,0.00
2014-10-25,60.1,50.1,38.7,34.5,29.9,23.4,68,47,28,30.03,29.87,0,0,0,0.00
2014-10-26,61.9,47.4,30.4,34.2,29.1,24.6,88,53,27,30.01,29.62,0,0,0,0.00
2014-10-27,52.5,45.9,39.4,45.0,37.3,29.8,90,73,44,29.68,29.57,0,0,0,0.14
2014-10-28,41.7,38.3,34.9,39.0,34.3,30.2,92,86,76,29.95,29.65,0,0,0,0.03
2014-10-29,37.9,35.7,34.0,32.2,30.9,30.0,87,82,78,30.12,29.95,0,0,0,0.00
2014-10-30,41.4,36.1,28.9,36.7,29.0,15.3,90,76,49,30.42,30.02,0,0,0,0.01
2014-10-31,39.6,29.8,23.9,20.3,17.2,14.0,74,60,39,30.56,30.40,0,0,0,0.00
2014-11-1,44.1,33.2,25.0,23.2,19.7,16.3,73,58,36,30.40,30.07,0,0,0,0.00
2014-11-2,54.3,42.0,34.0,32.2,26.5,21.0,64,55,39,30.07,29.81,0,0,0,0.00
2014-11-3,51.4,43.5,36.3,39.0,35.1,30.6,88,72,62,29.81,29.72,11,1,11,0.06
2014-11-4,41.5,38.8,34.7,35.2,29.8,25.0,89,70,61,29.94,29.80,21,3,21,0.00
2014-11-5,34.5,32.4,28.8,30.6,28.6,23.5,91,86,68,30.09,29.93,8,1,9,0.30
2014-11-6,34.9,30.5,25.2,32.0,27.9,22.6,91,90,88,30.26,30.09,6,0,6,0.00
2014-11-7,41.2,35.6,30.0,38.1,31.7,27.7,91,86,73,30.14,29.61,21,4,21,0.10
2014-11-8,37.2,34.4,30.4,29.3,24.6,20.5,84,68,52,29.99,29.74,19,4,19,0.00
2014-11-9,34.0,26.6,22.3,30.2,16.7,9.9,86,67,50,29.83,29.71,12,2,13,0.00
2014-11-10,23.5,22.2,21.4,18.9,17.0,15.3,86,80,74,30.04,29.78,19,4,19,0.15
2014-11-11,23.4,20.9,16.9,16.7,13.0,7.7,80,71,57,30.22,30.02,16,3,18,0.00
2014-11-12,26.6,21.6,16.5,19.8,16.0,10.9,87,79,66,30.31,30.20,9,2,9,0.05
2014-11-13,22.3,17.2,6.8,15.8,10.9,2.5,84,76,65,30.34,30.29,11,2,14,0.00
2014-11-14,23.4,11.1,1.9,11.8,4.7,-2.7,89,76,59,30.32,30.24,8,1,11,0.00
2014-11-15,24.3,12.3,0.9,14.5,6.4,-4.2,86,77,59,30.25,30.02,11,1,12,0.00
2014-11-16,14.7,10.7,5.9,9.0,4.6,1.4,82,76,68,30.02,29.73,14,3,18,0.00
2014-11-17,17.8,10.3,5.5,7.7,2.6,-1.1,78,71,60,29.95,29.83,18,4,18,0.00
2014-11-18,16.9,11.4,3.4,10.6,5.0,-1.1,90,75,63,29.94,29.68,12,2,12,0.00
2014-11-19,24.4,18.0,10.9,15.4,10.6,0.9,84,73,55,29.90,29.65,17,4,20,0.00
2014-11-20,18.0,7.8,0.7,2.7,-1.3,-5.3,78,66,49,30.16,29.90,12,2,13,0.00
2014-11-21,28.6,19.0,1.2,25.3,12.8,-4.0,89,77,66,30.16,29.73,21,4,21,0.00
2014-11-22,45.0,31.7,24.1,31.3,26.8,21.0,91,82,57,29.73,29.45,10,2,11,0.00
2014-11-23,40.6,35.4,30.7,36.1,32.0,26.6,92,87,78,29.47,29.39,10,1,10,0.00
2014-11-24,30.6,18.2,10.9,26.6,12.9,5.9,86,79,72,29.91,29.39,20,5,20,0.00
2014-11-25,20.3,13.3,3.4,11.3,6.2,-1.1,83,74,57,30.03,29.91,7,1,8,0.00
2014-11-26,19.4,13.9,-0.6,14.4,5.6,-8.0,84,70,46,30.42,30.02,14,3,15,0.00
2014-11-27,9.9,0.8,-10.5,1.0,-7.0,-15.9,89,69,53,30.45,30.16,9,1,9,0.00
2014-11-28,18.7,13.2,6.8,14.0,7.6,1.0,82,78,73,30.17,29.62,12,2,13,0.02
2014-11-29,36.5,24.4,14.4,26.8,18.4,6.1,86,78,67,29.71,29.38,15,2,16,0.00
2014-11-30,14.4,7.8,0.9,6.4,-2.3,-7.8,74,63,47,30.43,29.71,36,4,36,0.00
2014-12-1,5.5,-1.7,-9.8,-6.0,-11.8,-16.6,77,62,45,30.67,30.24,25,5,35,0.00
2014-12-2,23.9,13.9,1.9,12.4,5.8,-7.4,82,70,61,30.24,29.89,31,6,31,0.00
2014-12-3,21.2,13.9,6.8,10.6,5.8,2.1,84,71,47,30.29,29.96,21,4,31,0.00
2014-12-4,31.3,20.2,5.5,14.7,10.4,1.2,86,67,44,30.29,30.04,39,5,39,0.00
2014-12-5,36.9,25.7,18.1,23.9,18.1,13.5,98,74,48,30.47,30.04,18,3,18,0.00
2014-12-6,27.1,19.6,5.7,18.1,12.2,1.9,89,73,59,30.64,30.47,21,3,21,0.00
2014-12-7,31.5,29.4,26.6,30.0,24.7,18.1,94,83,70,30.47,29.96,33,9,39,0.00
2014-12-8,32.7,23.4,15.4,31.5,19.6,10.4,95,85,79,30.37,29.94,29,6,29,0.00
2014-12-9,17.8,16.3,14.5,15.6,13.6,11.8,91,89,82,30.47,30.37,16,3,18,0.00
2014-12-10,26.2,23.8,18.0,24.4,21.8,15.6,93,92,91,30.40,30.22,22,5,22,0.00
2014-12-11,29.1,27.6,25.9,27.9,26.1,24.3,95,94,93,30.24,30.15,25,5,25,0.00
2014-12-12,34.0,31.1,29.1,32.7,29.9,27.9,96,95,95,30.17,30.02,16,5,25,0.00
2014-12-13,40.6,37.7,34.0,40.3,36.7,32.7,100,96,95,30.03,29.90,14,4,18,0.00
2014-12-14,45.3,43.0,40.1,44.4,42.2,39.0,100,97,96,29.91,29.78,10,2,10,0.00
2014-12-15,44.2,31.2,18.1,43.5,30.0,15.6,97,95,90,30.05,29.77,39,8,49,0.30
2014-12-16,18.1,15.5,10.9,15.6,11.9,7.5,90,86,81,30.28,30.05,33,6,36,0.00
2014-12-17,20.7,13.0,7.2,13.8,9.0,3.9,92,84,72,30.33,30.27,16,2,16,0.00
2014-12-18,20.5,13.7,3.7,16.7,10.5,0.3,90,87,84,30.33,30.23,12,2,16,0.00
2014-12-19,27.1,22.4,18.7,25.7,20.1,15.4,100,91,87,30.24,30.10,21,3,21,0.01
2014-12-20,29.8,28.9,27.1,28.6,27.2,25.5,95,93,91,30.11,30.01,25,6,33,0.00
2014-12-21,34.3,31.3,27.7,33.3,29.9,25.9,96,95,93,30.02,29.69,25,5,25,0.01
2014-12-22,35.8,34.1,32.5,34.7,33.0,31.5,96,96,96,29.75,29.63,22,5,22,0.05
2014-12-23,34.5,33.6,32.5,32.7,31.9,30.6,96,94,90,29.94,29.75,29,6,29,0.00
2014-12-24,33.3,31.9,29.7,31.1,29.9,27.0,95,92,89,29.93,29.53,21,3,21,0.00
2014-12-25,31.6,30.1,28.0,29.5,26.6,23.5,92,87,80,29.96,29.53,21,4,25,0.00
2014-12-26,28.2,25.5,21.4,23.9,20.6,15.6,89,81,74,30.16,29.95,26,6,26,0.00
2014-12-27,23.4,20.1,16.0,17.1,13.3,7.0,86,75,51,30.13,30.03,25,4,25,0.00
2014-12-28,21.0,12.0,0.9,18.0,5.7,-4.2,88,76,57,30.41,30.03,22,4,22,0.00
2014-12-29,6.4,-1.2,-7.1,-4.2,-8.6,-12.5,92,71,52,30.68,30.41,21,3,21,0.00
2014-12-30,3.4,-4.2,-8.7,-6.5,-10.4,-13.9,80,74,62,30.71,30.45,22,4,25,0.00
2014-12-31,18.0,7.8,-4.0,13.6,1.2,-8.9,83,74,61,30.45,29.82,36,9,36,0.00
2015-1-1,23.9,17.4,3.0,20.7,9.0,-5.1,89,71,44,30.15,29.74,31,6,33,0.00
2015-1-2,27.5,15.9,-0.4,23.4,10.0,-6.0,87,77,67,30.17,29.92,26,5,29,0.00